This is the latest recevied weather packets stored in our database for station/object KE4ODN. If no packets are shown the sender has not sent any weather packets the latest 10 day(s).
| Time | Temp. | Humidity | Pressure | Rain* | Wind** | Luminosity | Snow |
|---|---|---|---|---|---|---|---|
| 1777947124 | 15.56° C | 77% | 1013.2 hPa | 0 mm | - | 0 W/m² | - |
| 1777946403 | 16.11° C | 76% | 1013 hPa | 0 mm | - | 0 W/m² | - |
| 1777946184 | 16.11° C | 74% | 1012.9 hPa | 0 mm | - | 0 W/m² | - |
| 1777944244 | 17.78° C | 68% | 1012.7 hPa | 0 mm | - | 0 W/m² | - |
| 1777943283 | 18.33° C | 64% | 1012.7 hPa | 0 mm | - | 0 W/m² | - |
| 1777943044 | 18.33° C | 63% | 1012.6 hPa | 0 mm | - | 0 W/m² | - |
| 1777942084 | 19.44° C | 65% | 1012.6 hPa | 0 mm | - | 0 W/m² | - |
| 1777941363 | 20° C | 70% | 1012.5 hPa | 0 mm | - | 0 W/m² | - |
| 1777939444 | 22.22° C | 48% | 1012.3 hPa | 0 mm | - | 11 W/m² | - |
| 1777938963 | 22.78° C | 48% | 1012.5 hPa | 0 mm | - | 12 W/m² | - |
| 1777936323 | 23.89° C | 49% | 1012.6 hPa | 0 mm | - | 28 W/m² | - |
| 1777934884 | 23.89° C | 43% | 1012.8 hPa | 0 mm | - | 35 W/m² | - |
| 1777934424 | 24.44° C | 48% | 1012.8 hPa | 0 mm | - | 37 W/m² | - |
| 1777933444 | 24.44° C | 43% | 1012.9 hPa | 0 mm | - | 40 W/m² | - |
| 1777932003 | 24.44° C | 43% | 1013 hPa | 0 mm | - | 47 W/m² | - |
| 1777931043 | 25° C | 41% | 1013.1 hPa | 0 mm | - | 51 W/m² | - |
| 1777927923 | 25.56° C | 39% | 1013.3 hPa | 0 mm | - | 568 W/m² | - |
| 1777926963 | 26.11° C | 39% | 1013.3 hPa | 0 mm | - | 705 W/m² | - |
| 1777926723 | 25.56° C | 42% | 1013.3 hPa | 0 mm | - | 710 W/m² | - |
| 1777923124 | 25.56° C | 40% | 1014.1 hPa | 0 mm | - | 742 W/m² | - |
| 1777921923 | 26.11° C | 37% | 1014.3 hPa | 0 mm | - | 886 W/m² | - |
| 1777921683 | 25.56° C | 45% | 1014.4 hPa | 0 mm | - | 875 W/m² | - |
| 1777917384 | 25° C | 42% | 1015.4 hPa | 0 mm | - | 603 W/m² | - |
| 1777916883 | 25° C | 48% | 1015.6 hPa | 0 mm | - | 956 W/m² | - |
| 1777916164 | 24.44° C | 48% | 1015.7 hPa | 0 mm | - | 958 W/m² | - |
* Rain latest hour (hover to see other rain measurements)
** Current wind speed in m/s (hover to see current wind gust speed)